Time;durP1;ratioP1;P1;durP2;ratioP2;P2;SDS_P1;SDS_P2;PMS_P1;PMS_P2;Temp;Humidity;BMP_temperature;BMP_pressure;BME280_temperature;BME280_humidity;BME280_pressure;Samples;Min_cycle;Max_cycle;Signal;HPM_P1;HPM_P2
2022/07/26 00:01:58;;;;;;;4.20;1.48;;;21.50;90.40;;;;;;5052484;28;20086;-86
2022/07/26 00:04:24;;;;;;;4.53;1.17;;;21.50;90.60;;;;;;5070474;28;20028;-86
2022/07/26 00:06:49;;;;;;;4.63;1.20;;;21.50;90.50;;;;;;5052064;28;20033;-85
2022/07/26 00:09:15;;;;;;;3.78;1.15;;;21.40;90.60;;;;;;5051949;28;20035;-85
2022/07/26 00:11:41;;;;;;;5.60;1.38;;;21.40;90.70;;;;;;5069957;28;20039;-86
2022/07/26 00:14:08;;;;;;;4.88;1.60;;;21.40;90.70;;;;;;5053518;28;20400;-86
2022/07/26 00:16:34;;;;;;;5.97;1.30;;;21.40;90.70;;;;;;5073455;28;20041;-86
2022/07/26 00:19:00;;;;;;;5.60;1.48;;;21.40;90.80;;;;;;5085679;22;20496;-69
2022/07/26 00:21:26;;;;;;;5.43;1.77;;;21.40;90.80;;;;;;5073768;28;20035;-70
2022/07/26 00:23:52;;;;;;;4.63;1.40;;;21.40;90.90;;;;;;5073851;28;20024;-69
2022/07/26 00:26:18;;;;;;;5.22;1.35;;;21.30;90.90;;;;;;5073579;28;20392;-69
2022/07/26 00:28:44;;;;;;;3.45;1.08;;;21.30;91.30;;;;;;5073488;28;20122;-69
2022/07/26 00:31:13;;;;;;;3.95;1.30;;;21.30;91.00;;;;;;5073761;28;20357;-69
2022/07/26 00:33:39;;;;;;;6.43;1.67;;;21.30;91.20;;;;;;5073616;28;20041;-69
2022/07/26 00:36:06;;;;;;;3.30;1.58;;;21.30;91.20;;;;;;5073497;28;20021;-69
2022/07/26 00:38:32;;;;;;;3.75;1.27;;;21.30;91.20;;;;;;5073228;28;20038;-70
2022/07/26 00:40:58;;;;;;;5.68;1.92;;;21.20;91.30;;;;;;5073229;28;20029;-69
2022/07/26 00:43:24;;;;;;;8.90;1.95;;;21.30;91.30;;;;;;5073401;28;20052;-70
2022/07/26 00:45:50;;;;;;;4.50;1.50;;;21.20;91.20;;;;;;5055567;28;20105;-69
2022/07/26 00:48:17;;;;;;;7.25;1.77;;;21.20;91.40;;;;;;5038668;28;20376;-70
2022/07/26 00:50:43;;;;;;;3.80;1.80;;;21.10;91.30;;;;;;5073055;28;20056;-70
2022/07/26 00:53:09;;;;;;;5.40;1.88;;;21.10;91.40;;;;;;5073303;28;20435;-69
2022/07/26 00:55:35;;;;;;;6.65;2.38;;;21.10;91.50;;;;;;5072908;28;20040;-69
2022/07/26 00:58:01;;;;;;;8.75;2.60;;;21.10;91.40;;;;;;5073364;28;20039;-69
2022/07/26 01:00:28;;;;;;;6.70;2.05;;;21.10;91.50;;;;;;5072787;28;20036;-69
2022/07/26 01:02:55;;;;;;;6.20;2.13;;;21.10;91.50;;;;;;5072950;28;20032;-69
2022/07/26 01:05:22;;;;;;;6.38;1.83;;;21.10;91.60;;;;;;5073016;28;20485;-69
2022/07/26 01:07:49;;;;;;;5.72;1.98;;;21.10;91.50;;;;;;5072698;28;20085;-69
2022/07/26 01:10:15;;;;;;;5.18;1.92;;;21.10;91.50;;;;;;5072607;28;20060;-69
2022/07/26 01:12:41;;;;;;;4.38;1.95;;;21.10;91.60;;;;;;5073116;28;20048;-69
2022/07/26 01:15:09;;;;;;;10.40;2.20;;;21.10;91.60;;;;;;5073130;28;20032;-70
2022/07/26 01:17:35;;;;;;;5.32;2.35;;;21.10;91.70;;;;;;5072723;28;20036;-69
2022/07/26 01:20:02;;;;;;;5.78;1.90;;;21.10;91.60;;;;;;5072675;28;20082;-69
2022/07/26 01:22:28;;;;;;;7.57;2.60;;;21.10;91.60;;;;;;5072910;28;20385;-70
2022/07/26 01:24:54;;;;;;;6.68;2.33;;;21.10;91.70;;;;;;5071975;28;20029;-69
2022/07/26 01:27:20;;;;;;;6.97;2.45;;;21.10;91.80;;;;;;5072352;28;20064;-69
2022/07/26 01:29:46;;;;;;;4.80;1.65;;;21.10;91.90;;;;;;5072199;28;20028;-69
2022/07/26 01:32:13;;;;;;;6.70;2.30;;;21.00;92.00;;;;;;5072538;28;20066;-69
2022/07/26 01:34:39;;;;;;;7.32;2.17;;;21.10;91.90;;;;;;5072362;28;20027;-69
2022/07/26 01:37:05;;;;;;;7.18;2.60;;;21.00;91.90;;;;;;5072215;28;20029;-69
2022/07/26 01:39:31;;;;;;;7.03;2.38;;;21.00;91.90;;;;;;5071985;28;20036;-69
2022/07/26 01:41:57;;;;;;;4.10;1.90;;;21.00;92.00;;;;;;5072320;28;20507;-69
2022/07/26 01:44:23;;;;;;;6.93;1.65;;;21.00;92.00;;;;;;5072384;28;20028;-69
2022/07/26 01:46:49;;;;;;;9.50;1.95;;;21.00;92.10;;;;;;5072114;28;20034;-69
2022/07/26 01:49:15;;;;;;;4.80;1.40;;;21.00;92.20;;;;;;5054178;28;20492;-70
2022/07/26 01:51:42;;;;;;;6.68;1.67;;;21.00;92.20;;;;;;5072381;28;20028;-69
2022/07/26 01:54:08;;;;;;;4.55;1.45;;;21.00;92.10;;;;;;5072156;28;20028;-69
2022/07/26 01:56:34;;;;;;;6.47;1.77;;;20.90;92.10;;;;;;5071893;28;20032;-70
2022/07/26 01:59:00;;;;;;;7.35;1.48;;;20.90;92.20;;;;;;5071675;28;20040;-69
2022/07/26 02:01:26;;;;;;;4.18;1.30;;;20.90;92.30;;;;;;5071867;28;20465;-69
2022/07/26 02:03:52;;;;;;;7.68;1.30;;;20.80;92.30;;;;;;5071840;28;20025;-70
2022/07/26 02:06:18;;;;;;;4.32;1.38;;;20.90;92.40;;;;;;5071719;28;20025;-69
2022/07/26 02:08:44;;;;;;;5.55;1.40;;;20.90;92.50;;;;;;5053588;28;20119;-70
2022/07/26 02:11:10;;;;;;;6.45;1.67;;;20.80;92.50;;;;;;5071880;28;20124;-69
2022/07/26 02:13:38;;;;;;;8.23;1.55;;;20.80;92.50;;;;;;5071716;28;20115;-69
2022/07/26 02:16:07;;;;;;;4.63;1.58;;;20.80;92.70;;;;;;5053811;28;20439;-70
2022/07/26 02:18:33;;;;;;;;;;;20.80;92.70;;;;;;5071613;28;20068;-69
2022/07/26 02:21:00;;;;;;;5.63;1.45;;;20.80;92.90;;;;;;5071397;28;20418;-69
2022/07/26 02:23:27;;;;;;;5.75;1.40;;;20.80;92.90;;;;;;5071446;28;20052;-70
2022/07/26 02:25:54;;;;;;;6.82;1.55;;;20.80;92.90;;;;;;5071461;28;20052;-69
2022/07/26 02:28:20;;;;;;;7.50;1.63;;;20.80;92.90;;;;;;5071380;28;20434;-70
2022/07/26 02:30:47;;;;;;;5.85;1.50;;;20.80;92.90;;;;;;5071027;28;20029;-69
2022/07/26 02:33:14;;;;;;;4.03;1.40;;;20.80;92.90;;;;;;5071439;28;20040;-69
2022/07/26 02:35:40;;;;;;;4.28;1.40;;;20.80;93.00;;;;;;5071180;28;20028;-69
2022/07/26 02:38:09;;;;;;;7.60;1.75;;;20.80;93.00;;;;;;5071138;28;20105;-70
2022/07/26 02:40:35;;;;;;;6.15;1.77;;;20.80;93.10;;;;;;5071276;28;20028;-69
2022/07/26 02:43:03;;;;;;;8.80;2.38;;;20.80;93.10;;;;;;5071129;28;20408;-69
2022/07/26 02:45:29;;;;;;;6.30;1.60;;;20.80;93.10;;;;;;5071191;28;20030;-70
2022/07/26 02:47:55;;;;;;;7.68;2.08;;;20.80;93.20;;;;;;5071036;28;20025;-69
2022/07/26 02:50:24;;;;;;;7.95;2.03;;;20.70;93.30;;;;;;5070803;28;20120;-69
2022/07/26 02:52:51;;;;;;;6.57;1.73;;;20.70;93.40;;;;;;5071009;28;20111;-69
2022/07/26 02:55:20;;;;;;;8.10;1.65;;;20.80;93.50;;;;;;5071095;28;20500;-69
2022/07/26 02:57:46;;;;;;;8.57;1.73;;;20.70;93.60;;;;;;5070937;28;20029;-69
2022/07/26 03:00:14;;;;;;;7.22;1.80;;;20.70;93.60;;;;;;5070637;28;20128;-69
2022/07/26 03:02:40;;;;;;;7.40;2.25;;;20.70;93.70;;;;;;5070971;28;20388;-69
2022/07/26 03:05:07;;;;;;;8.50;1.98;;;20.70;93.70;;;;;;5070913;28;20469;-69
2022/07/26 03:07:33;;;;;;;6.53;1.80;;;20.70;93.90;;;;;;5070819;28;20422;-70
2022/07/26 03:09:59;;;;;;;6.43;1.80;;;20.60;93.90;;;;;;5070738;28;20113;-69
2022/07/26 03:12:25;;;;;;;6.95;1.92;;;20.60;94.00;;;;;;5071022;28;20067;-69
2022/07/26 03:14:52;;;;;;;8.15;1.75;;;20.50;94.10;;;;;;5070835;28;20024;-69
2022/07/26 03:17:18;;;;;;;8.95;1.92;;;20.60;94.30;;;;;;5070702;28;20033;-69
2022/07/26 03:19:44;;;;;;;10.27;2.25;;;20.60;94.40;;;;;;5070430;28;20027;-69
2022/07/26 03:22:10;;;;;;;8.57;1.83;;;20.60;94.50;;;;;;5070869;28;20025;-69
2022/07/26 03:24:36;;;;;;;7.65;2.10;;;20.60;94.50;;;;;;5070782;28;20485;-69
2022/07/26 03:27:03;;;;;;;9.25;2.30;;;20.60;94.50;;;;;;5070625;28;20047;-69
2022/07/26 03:29:29;;;;;;;7.55;1.88;;;20.60;94.60;;;;;;5070391;28;20025;-70
2022/07/26 03:31:55;;;;;;;9.25;2.38;;;20.60;94.60;;;;;;5053060;28;20039;-70
2022/07/26 03:34:21;;;;;;;9.32;2.67;;;20.50;94.60;;;;;;5070752;28;20465;-70
2022/07/26 03:36:46;;;;;;;10.70;2.60;;;20.60;94.70;;;;;;5070722;28;20028;-70
2022/07/26 03:39:12;;;;;;;9.32;1.92;;;20.60;94.60;;;;;;5070506;28;20443;-69
2022/07/26 03:41:38;;;;;;;7.28;2.72;;;20.50;94.70;;;;;;5070583;28;20469;-69
2022/07/26 03:44:04;;;;;;;12.95;2.28;;;20.50;94.70;;;;;;5070565;28;20082;-69
2022/07/26 03:46:30;;;;;;;7.97;2.45;;;20.50;94.70;;;;;;5070502;28;20078;-69
2022/07/26 03:48:56;;;;;;;5.07;2.17;;;20.50;94.70;;;;;;5053694;28;20025;-70
2022/07/26 03:51:22;;;;;;;11.95;2.95;;;20.50;94.70;;;;;;5074663;28;20447;-70
2022/07/26 03:53:48;;;;;;;9.85;2.38;;;20.50;94.70;;;;;;5074322;28;20519;-70
2022/07/26 03:56:33;;;;;;;9.05;1.98;;;20.50;94.70;;;;;;5074213;28;20085;-69
2022/07/26 03:59:01;;;;;;;6.90;1.75;;;20.40;94.80;;;;;;5073921;28;20111;-69
2022/07/26 04:01:27;;;;;;;;;;;20.40;94.80;;;;;;5056699;28;20035;-69
2022/07/26 04:03:53;;;;;;;7.60;2.00;;;20.40;94.90;;;;;;5074218;28;19908;-69
2022/07/26 04:06:20;;;;;;;8.18;2.67;;;20.40;94.90;;;;;;5074095;28;20028;-70
2022/07/26 04:08:46;;;;;;;7.15;2.53;;;20.40;95.00;;;;;;5073972;28;20078;-69
2022/07/26 04:11:12;;;;;;;10.30;2.88;;;20.40;95.40;;;;;;5074042;28;20129;-69
2022/07/26 04:13:38;;;;;;;9.18;2.40;;;20.40;95.50;;;;;;5056135;28;20521;-69
2022/07/26 04:16:05;;;;;;;8.02;2.20;;;20.40;95.60;;;;;;5073812;28;20025;-69
2022/07/26 04:18:30;;;;;;;9.98;2.40;;;20.30;95.70;;;;;;5073749;28;20116;-69
2022/07/26 04:20:57;;;;;;;7.00;1.85;;;20.30;95.80;;;;;;5073853;28;20467;-69
2022/07/26 04:23:23;;;;;;;4.95;1.75;;;20.30;96.10;;;;;;5073761;28;20024;-69
2022/07/26 04:25:48;;;;;;;6.80;1.75;;;20.30;96.20;;;;;;5055702;28;20028;-69
2022/07/26 04:28:14;;;;;;;5.68;2.10;;;20.30;96.80;;;;;;5073831;28;20039;-69
2022/07/26 04:30:40;;;;;;;9.60;2.00;;;20.30;96.90;;;;;;5073649;28;20490;-69
2022/07/26 04:33:06;;;;;;;6.93;1.80;;;20.20;97.20;;;;;;5073901;28;20499;-69
2022/07/26 04:35:33;;;;;;;10.23;2.08;;;20.20;97.10;;;;;;5073704;28;20477;-70
2022/07/26 04:37:59;;;;;;;9.15;2.20;;;20.20;97.00;;;;;;5073532;28;20115;-69
2022/07/26 04:40:27;;;;;;;7.57;2.05;;;20.20;96.80;;;;;;5073504;28;20572;-70
2022/07/26 04:42:53;;;;;;;8.87;2.83;;;20.20;97.00;;;;;;5073778;28;20081;-69
2022/07/26 04:45:19;;;;;;;10.30;2.10;;;20.20;96.90;;;;;;5073606;28;20032;-69
2022/07/26 04:47:51;;;;;;;7.00;1.80;;;20.20;97.00;;;;;;5073185;28;20077;-69
2022/07/26 04:50:21;;;;;;;8.30;2.58;;;20.10;96.80;;;;;;5072928;28;20028;-69
2022/07/26 04:52:48;;;;;;;9.65;2.75;;;20.10;96.90;;;;;;5073304;28;20021;-70
2022/07/26 04:55:15;;;;;;;11.15;2.50;;;20.10;97.10;;;;;;5073026;28;20485;-69
2022/07/26 04:57:41;;;;;;;8.35;2.40;;;20.10;96.90;;;;;;5073261;28;20033;-69
2022/07/26 05:00:10;;;;;;;12.43;2.92;;;20.10;96.90;;;;;;5071664;28;20058;-69
2022/07/26 05:02:36;;;;;;;8.13;2.30;;;20.10;96.80;;;;;;5073271;28;20473;-69
2022/07/26 05:05:03;;;;;;;8.93;2.58;;;20.10;97.00;;;;;;5073108;28;20028;-69
2022/07/26 05:07:39;;;;;;;11.30;2.33;;;20.10;97.00;;;;;;5072951;28;20032;-69
2022/07/26 05:10:06;;;;;;;10.02;2.70;;;20.10;97.00;;;;;;5072839;28;20033;-70
2022/07/26 05:12:31;;;;;;;7.18;2.45;;;20.10;97.10;;;;;;5038347;28;20534;-69
2022/07/26 05:14:57;;;;;;;8.85;2.53;;;20.10;97.00;;;;;;5072985;28;20048;-69
2022/07/26 05:17:23;;;;;;;11.07;2.20;;;20.20;97.00;;;;;;5072816;28;20462;-70
2022/07/26 05:19:49;;;;;;;9.90;2.63;;;20.20;97.10;;;;;;5072504;28;20528;-69
2022/07/26 05:22:15;;;;;;;8.73;2.55;;;20.20;97.20;;;;;;5072729;28;20497;-70
2022/07/26 05:24:41;;;;;;;8.00;2.40;;;20.20;97.10;;;;;;5072897;28;20044;-69
2022/07/26 05:27:07;;;;;;;10.60;2.70;;;20.20;97.00;;;;;;5072453;28;20025;-69
2022/07/26 05:29:33;;;;;;;7.72;2.90;;;20.20;96.90;;;;;;5054626;28;20043;-69
2022/07/26 05:31:59;;;;;;;9.18;2.40;;;20.30;97.00;;;;;;5072455;28;20036;-69
2022/07/26 05:34:25;;;;;;;10.30;2.80;;;20.30;97.10;;;;;;5072514;28;20032;-69
2022/07/26 05:36:51;;;;;;;6.97;2.72;;;20.30;97.00;;;;;;5054364;28;20127;-69
2022/07/26 05:39:17;;;;;;;10.32;3.03;;;20.30;97.00;;;;;;5072034;28;20123;-70
2022/07/26 05:41:43;;;;;;;10.02;2.67;;;20.30;96.90;;;;;;5072234;28;20174;-70
2022/07/26 05:44:09;;;;;;;13.73;3.30;;;20.30;96.90;;;;;;5072272;28;20028;-69
2022/07/26 05:46:38;;;;;;;12.50;3.17;;;20.30;96.90;;;;;;5072248;28;20035;-69
2022/07/26 05:49:05;;;;;;;9.85;2.67;;;20.40;97.00;;;;;;5071683;28;20021;-69
2022/07/26 05:51:32;;;;;;;13.45;3.35;;;20.40;96.90;;;;;;5071970;28;20024;-69
2022/07/26 05:53:58;;;;;;;12.25;3.50;;;20.40;96.90;;;;;;5072137;28;20036;-70
2022/07/26 05:56:24;;;;;;;13.88;3.47;;;20.40;96.90;;;;;;5071885;28;20033;-69
2022/07/26 05:58:50;;;;;;;12.98;3.53;;;20.40;96.90;;;;;;5071875;28;20033;-69
2022/07/26 06:01:16;;;;;;;10.23;3.30;;;20.40;96.80;;;;;;5071785;28;20075;-69
2022/07/26 06:03:42;;;;;;;9.77;3.42;;;20.40;96.90;;;;;;5071821;28;20020;-70
2022/07/26 06:06:08;;;;;;;13.18;3.85;;;20.40;97.00;;;;;;5071588;28;20456;-69
2022/07/26 06:08:35;;;;;;;10.70;3.53;;;20.30;97.10;;;;;;5071483;28;20020;-69
2022/07/26 06:11:01;;;;;;;11.95;4.20;;;20.30;97.10;;;;;;5071638;28;20094;-69
2022/07/26 06:13:27;;;;;;;11.95;3.70;;;20.40;97.10;;;;;;5071355;28;20036;-69
2022/07/26 06:15:53;;;;;;;11.85;3.28;;;20.40;97.20;;;;;;5071657;28;20064;-70
2022/07/26 06:18:19;;;;;;;15.68;3.65;;;20.30;97.20;;;;;;5069487;22;20035;-67
2022/07/26 06:20:46;;;;;;;17.92;6.15;;;20.30;97.10;;;;;;5035815;28;20045;-66
2022/07/26 06:23:13;;;;;;;10.55;3.17;;;20.30;97.20;;;;;;5071930;28;20036;-65
2022/07/26 06:25:39;;;;;;;11.57;3.38;;;20.30;97.40;;;;;;5071674;28;20679;-65
2022/07/26 06:28:08;;;;;;;14.05;3.97;;;20.30;97.40;;;;;;5071632;28;20099;-65
2022/07/26 06:30:36;;;;;;;15.48;3.45;;;20.30;97.50;;;;;;5071746;28;20423;-65
2022/07/26 06:33:02;;;;;;;12.48;3.80;;;20.30;97.40;;;;;;5054075;28;20040;-65
2022/07/26 06:35:29;;;;;;;15.68;3.47;;;20.30;97.40;;;;;;5071508;28;20033;-65
2022/07/26 06:37:56;;;;;;;18.63;3.97;;;20.40;97.40;;;;;;5071547;28;20028;-66
2022/07/26 06:40:23;;;;;;;9.73;3.47;;;20.40;97.40;;;;;;5071258;28;20508;-64
2022/07/26 06:42:49;;;;;;;12.82;3.30;;;20.40;97.50;;;;;;5071548;28;20029;-65
2022/07/26 06:45:15;;;;;;;17.92;3.60;;;20.40;97.50;;;;;;5071337;28;20103;-65
2022/07/26 06:47:41;;;;;;;11.02;2.88;;;20.40;97.40;;;;;;5071214;28;20040;-66
2022/07/26 06:50:08;;;;;;;12.98;5.18;;;20.50;97.50;;;;;;5071391;28;20028;-65
2022/07/26 06:52:34;;;;;;;9.50;3.72;;;20.50;97.50;;;;;;5071431;28;20024;-66
2022/07/26 06:55:02;;;;;;;12.35;3.13;;;20.60;97.40;;;;;;5071302;28;20024;-65
2022/07/26 06:57:28;;;;;;;11.35;3.47;;;20.60;97.50;;;;;;5071255;28;20493;-64
2022/07/26 06:59:54;;;;;;;6.80;2.95;;;20.70;97.20;;;;;;5071051;28;20028;-65
2022/07/26 07:02:20;;;;;;;10.77;3.00;;;20.70;97.20;;;;;;5053066;28;20048;-65
2022/07/26 07:04:46;;;;;;;12.55;3.88;;;20.70;97.30;;;;;;5071352;28;20492;-65
2022/07/26 07:07:13;;;;;;;13.13;3.38;;;20.70;97.20;;;;;;5071091;28;20032;-65
2022/07/26 07:09:39;;;;;;;10.65;3.47;;;20.70;97.20;;;;;;5070866;28;20034;-66
2022/07/26 07:12:06;;;;;;;12.68;3.50;;;20.70;97.20;;;;;;5071098;28;20028;-66
2022/07/26 07:14:32;;;;;;;10.25;3.30;;;20.70;97.30;;;;;;5071058;28;20033;-65
2022/07/26 07:16:59;;;;;;;13.98;3.10;;;20.70;97.30;;;;;;5070795;28;20068;-65
2022/07/26 07:19:42;;;;;;;14.30;3.53;;;20.70;97.30;;;;;;5055362;28;20048;-66
2022/07/26 07:22:10;;;;;;;13.32;3.60;;;20.80;97.20;;;;;;5070829;28;20036;-65
2022/07/26 07:24:38;;;;;;;12.35;3.40;;;20.70;97.20;;;;;;5073113;28;20119;-65
2022/07/26 07:27:04;;;;;;;10.60;3.28;;;20.80;97.20;;;;;;5075143;28;20146;-65
2022/07/26 07:29:30;;;;;;;10.20;3.28;;;20.80;97.20;;;;;;5074634;28;20037;-66
2022/07/26 07:31:56;;;;;;;13.05;3.35;;;20.80;97.20;;;;;;5074783;28;20048;-66
2022/07/26 07:34:22;;;;;;;10.55;3.90;;;20.90;97.20;;;;;;5074832;28;20036;-66
2022/07/26 07:36:49;;;;;;;12.82;2.70;;;20.90;97.00;;;;;;5074764;28;20024;-66
2022/07/26 07:39:16;;;;;;;13.23;3.13;;;20.90;97.00;;;;;;5074563;28;20028;-66
2022/07/26 07:41:43;;;;;;;9.32;3.58;;;21.00;96.90;;;;;;5075028;28;20021;-66
2022/07/26 07:44:09;;;;;;;10.77;4.63;;;21.00;96.90;;;;;;5057247;28;20055;-66
2022/07/26 07:46:35;;;;;;;12.63;4.25;;;21.00;97.00;;;;;;5074593;28;20033;-66
2022/07/26 07:49:01;;;;;;;11.20;3.15;;;21.10;97.00;;;;;;5074279;28;20023;-67
2022/07/26 07:51:27;;;;;;;8.20;2.90;;;21.10;96.90;;;;;;5074534;28;20035;-66
2022/07/26 07:53:53;;;;;;;9.65;3.08;;;21.20;96.40;;;;;;5074545;28;20066;-66
2022/07/26 07:56:19;;;;;;;9.63;3.00;;;21.20;95.90;;;;;;5074274;28;20028;-66
2022/07/26 07:58:46;;;;;;;10.85;3.53;;;21.30;95.80;;;;;;5074445;28;20029;-66
2022/07/26 08:01:12;;;;;;;12.10;3.83;;;21.30;95.70;;;;;;5074196;28;20085;-66
2022/07/26 08:03:39;;;;;;;7.82;2.60;;;21.30;95.70;;;;;;5074309;28;20421;-66
2022/07/26 08:06:07;;;;;;;10.68;3.10;;;21.40;95.90;;;;;;5074181;28;20431;-66
2022/07/26 08:08:34;;;;;;;8.50;2.88;;;21.40;95.90;;;;;;5074034;28;20047;-67
2022/07/26 08:11:00;;;;;;;8.02;3.15;;;21.50;95.80;;;;;;5074015;28;20093;-66
2022/07/26 08:13:26;;;;;;;11.95;3.90;;;21.50;95.40;;;;;;5074249;28;20449;-66
2022/07/26 08:15:53;;;;;;;9.82;3.03;;;21.60;95.20;;;;;;5073987;28;20032;-66
2022/07/26 08:18:22;;;;;;;13.25;3.08;;;21.70;95.20;;;;;;5074057;28;20629;-66
2022/07/26 08:20:48;;;;;;;11.07;2.97;;;21.70;95.00;;;;;;5056046;28;20098;-67
2022/07/26 08:23:14;;;;;;;6.90;2.45;;;21.70;94.60;;;;;;5074025;28;20021;-66
2022/07/26 08:25:40;;;;;;;7.57;2.50;;;21.70;94.40;;;;;;5073985;28;20105;-67
2022/07/26 08:28:06;;;;;;;9.35;2.83;;;21.70;94.30;;;;;;5074198;28;20028;-66
2022/07/26 08:30:33;;;;;;;8.68;2.83;;;21.70;94.20;;;;;;5055785;28;20033;-66
2022/07/26 08:33:00;;;;;;;6.45;2.20;;;21.70;94.30;;;;;;5073972;28;20063;-66
2022/07/26 08:35:28;;;;;;;5.93;2.60;;;21.60;94.20;;;;;;5073484;28;20059;-66
2022/07/26 08:37:55;;;;;;;11.02;2.65;;;21.60;94.50;;;;;;5073652;28;20109;-66
2022/07/26 08:40:22;;;;;;;11.20;2.67;;;21.60;94.70;;;;;;5073360;28;20086;-65
2022/07/26 08:42:49;;;;;;;11.70;3.60;;;21.60;94.50;;;;;;5073528;28;20062;-66
2022/07/26 08:45:26;;;;;;;11.13;3.22;;;21.60;94.20;;;;;;5073765;28;20024;-66
2022/07/26 08:47:53;;;;;;;9.02;2.58;;;21.60;94.30;;;;;;5073852;28;20028;-66
2022/07/26 08:50:20;;;;;;;8.27;3.30;;;21.70;94.30;;;;;;5073153;28;20024;-66
2022/07/26 08:52:46;;;;;;;9.07;2.90;;;21.60;94.00;;;;;;5073399;28;20035;-65
2022/07/26 08:55:19;;;;;;;8.23;3.67;;;21.60;94.70;;;;;;5073338;28;20040;-65
2022/07/26 08:57:46;;;;;;;11.38;4.40;;;21.50;95.50;;;;;;5073474;28;20405;-66
2022/07/26 09:00:23;;;;;;;9.50;3.30;;;21.50;95.60;;;;;;5072960;28;20025;-66
2022/07/26 09:02:50;;;;;;;10.53;3.50;;;21.40;95.90;;;;;;5073229;28;20024;-66
2022/07/26 09:05:27;;;;;;;12.13;4.25;;;21.40;96.10;;;;;;5073141;28;20024;-65
2022/07/26 09:07:54;;;;;;;11.77;3.70;;;21.40;95.80;;;;;;5073117;28;20115;-66
2022/07/26 09:10:20;;;;;;;7.72;3.45;;;21.50;95.90;;;;;;5073140;28;20030;-66
2022/07/26 09:12:55;;;;;;;10.60;4.70;;;21.50;95.80;;;;;;5073065;28;20051;-66
2022/07/26 09:15:26;;;;;;;12.13;5.95;;;21.60;95.00;;;;;;5055136;28;20032;-65
2022/07/26 09:17:57;;;;;;;17.83;5.55;;;21.70;93.80;;;;;;5072951;28;20036;-66
2022/07/26 09:20:26;;;;;;;11.45;5.65;;;21.80;93.10;;;;;;5072497;28;20489;-67
2022/07/26 09:23:07;;;;;;;14.35;5.40;;;21.90;92.10;;;;;;5073290;28;20103;-65
2022/07/26 09:25:39;;;;;;;6.43;3.63;;;22.00;91.50;;;;;;5072976;28;20031;-66
2022/07/26 09:28:27;;;;;;;6.45;4.15;;;22.00;91.50;;;;;;5072829;28;20024;-65
2022/07/26 09:31:13;;;;;;;9.23;5.10;;;22.00;91.60;;;;;;5072807;28;20113;-66
2022/07/26 09:33:50;;;;;;;10.05;4.20;;;22.10;91.80;;;;;;5070786;28;20513;-65
2022/07/26 09:36:17;;;;;;;9.68;4.47;;;22.20;91.90;;;;;;5072508;28;20112;-66
2022/07/26 09:38:46;;;;;;;8.90;4.10;;;22.20;91.60;;;;;;5072488;28;20063;-67
2022/07/26 09:41:28;;;;;;;4.10;3.03;;;22.30;91.50;;;;;;5072375;28;20107;-66
2022/07/26 09:43:57;;;;;;;7.63;3.10;;;22.30;91.70;;;;;;5072480;28;20073;-66
2022/07/26 09:46:24;;;;;;;6.07;2.75;;;22.40;91.50;;;;;;5071698;28;20024;-66
2022/07/26 09:48:51;;;;;;;11.95;3.08;;;22.50;91.70;;;;;;5072258;28;20031;-67
2022/07/26 09:51:41;;;;;;;38.17;7.57;;;22.60;91.40;;;;;;5072266;28;20404;-67
2022/07/26 09:54:09;;;;;;;14.35;3.88;;;22.60;91.30;;;;;;5072472;28;20028;-66
2022/07/26 09:56:50;;;;;;;8.23;2.50;;;22.60;91.40;;;;;;5072073;28;20036;-65
2022/07/26 09:59:21;;;;;;;8.30;2.67;;;22.60;91.20;;;;;;5071790;28;20474;-67
2022/07/26 10:01:49;;;;;;;5.47;2.70;;;22.70;91.20;;;;;;5072468;28;20366;-67
2022/07/26 10:04:16;;;;;;;6.40;2.60;;;22.60;90.90;;;;;;5072176;28;20036;-66
2022/07/26 10:06:42;;;;;;;7.05;3.03;;;22.60;90.10;;;;;;5072026;28;20020;-66
2022/07/26 10:09:10;;;;;;;5.75;2.63;;;22.60;89.00;;;;;;5071745;28;20043;-66
2022/07/26 10:11:57;;;;;;;5.33;2.30;;;22.70;89.10;;;;;;5071782;28;20044;-66
2022/07/26 10:14:32;;;;;;;6.82;2.30;;;22.60;89.30;;;;;;5071755;28;20107;-66
2022/07/26 10:16:58;;;;;;;4.45;2.60;;;22.70;89.10;;;;;;5072053;28;20373;-66
2022/07/26 10:19:38;;;;;;;6.25;2.22;;;22.70;89.40;;;;;;5071596;28;20405;-66
2022/07/26 10:22:24;;;;;;;8.00;2.45;;;22.80;91.10;;;;;;5071742;28;20035;-67
2022/07/26 10:24:53;;;;;;;7.63;2.40;;;22.60;92.00;;;;;;5071627;28;20100;-66
2022/07/26 10:27:36;;;;;;;8.85;3.17;;;22.50;92.50;;;;;;5071659;28;20039;-66
2022/07/26 10:30:18;;;;;;;5.72;3.10;;;22.40;93.10;;;;;;5071251;28;20032;-66
2022/07/26 10:32:50;;;;;;;5.80;2.45;;;22.20;93.40;;;;;;5071766;28;20033;-66
2022/07/26 10:35:28;;;;;;;9.27;3.22;;;22.20;93.00;;;;;;5071414;28;20545;-66
2022/07/26 10:38:13;;;;;;;7.88;3.08;;;22.00;93.70;;;;;;5071359;28;20092;-66
2022/07/26 10:41:01;;;;;;;7.25;3.28;;;21.90;94.30;;;;;;5071111;28;20485;-66
2022/07/26 10:43:28;;;;;;;6.38;2.50;;;21.80;94.60;;;;;;5071335;28;20489;-66
2022/07/26 10:46:16;;;;;;;4.03;2.10;;;21.70;95.00;;;;;;5071370;28;20554;-66
2022/07/26 10:49:02;;;;;;;5.38;1.80;;;21.70;95.20;;;;;;5071049;28;20025;-66
2022/07/26 10:51:32;;;;;;;5.30;1.50;;;21.60;95.10;;;;;;5071246;28;20036;-65
2022/07/26 10:54:04;;;;;;;4.75;1.60;;;21.60;95.30;;;;;;5071191;28;20403;-66
2022/07/26 10:56:30;;;;;;;3.13;1.23;;;21.50;95.20;;;;;;5070979;28;20036;-66
2022/07/26 10:58:57;;;;;;;3.53;1.40;;;21.50;94.90;;;;;;5071072;28;20089;-65
2022/07/26 11:01:41;;;;;;;4.60;1.30;;;21.50;95.30;;;;;;5071012;28;20033;-65
2022/07/26 11:04:20;;;;;;;2.80;1.00;;;21.40;95.50;;;;;;5071201;28;20086;-66
2022/07/26 11:06:47;;;;;;;2.47;0.93;;;21.40;95.70;;;;;;5071186;28;20389;-66
2022/07/26 11:09:13;;;;;;;2.72;1.02;;;21.40;95.70;;;;;;5070988;28;20078;-65
2022/07/26 11:11:40;;;;;;;1.30;0.73;;;21.40;95.30;;;;;;5070892;28;20036;-65
2022/07/26 11:14:12;;;;;;;2.90;0.70;;;21.40;94.90;;;;;;5071147;28;20029;-66
2022/07/26 11:16:46;;;;;;;4.35;0.85;;;21.40;94.80;;;;;;5070805;28;20033;-66
2022/07/26 11:19:13;;;;;;;2.55;0.70;;;21.40;94.90;;;;;;5070614;28;20569;-65
2022/07/26 11:21:40;;;;;;;1.02;0.73;;;21.40;94.70;;;;;;5071071;28;20464;-66
2022/07/26 11:24:07;;;;;;;1.20;0.77;;;21.50;94.30;;;;;;5071087;28;20043;-65
2022/07/26 11:26:42;;;;;;;1.73;0.80;;;21.50;94.40;;;;;;5070806;28;20044;-65
2022/07/26 11:29:08;;;;;;;1.77;0.70;;;21.50;93.80;;;;;;5070600;28;20035;-66
2022/07/26 11:31:39;;;;;;;2.80;0.80;;;21.50;93.80;;;;;;5070669;28;20478;-66
2022/07/26 11:34:07;;;;;;;2.75;0.70;;;21.60;94.00;;;;;;5070950;28;20107;-66
2022/07/26 11:36:36;;;;;;;4.40;0.80;;;21.60;93.70;;;;;;5070793;28;20032;-66
2022/07/26 11:39:05;;;;;;;2.03;0.75;;;21.70;93.60;;;;;;5070886;28;20090;-66
2022/07/26 11:41:32;;;;;;;5.40;0.90;;;21.80;93.30;;;;;;5070701;28;20032;-66
2022/07/26 11:43:59;;;;;;;1.50;0.80;;;21.80;93.20;;;;;;5071038;28;20027;-65
2022/07/26 11:46:39;;;;;;;3.50;1.25;;;21.80;93.30;;;;;;5070609;28;20021;-66
2022/07/26 11:49:13;;;;;;;2.13;0.80;;;21.90;93.60;;;;;;5070547;28;20047;-65
2022/07/26 11:51:46;;;;;;;3.85;0.70;;;21.90;93.50;;;;;;5070705;28;20025;-66
2022/07/26 11:54:12;;;;;;;2.95;1.27;;;21.90;93.60;;;;;;5070717;28;20115;-66
2022/07/26 11:56:38;;;;;;;2.08;1.40;;;22.00;92.90;;;;;;5070582;28;20112;-66
2022/07/26 11:59:05;;;;;;;5.50;3.05;;;22.10;92.80;;;;;;5070645;28;20089;-66
2022/07/26 12:01:31;;;;;;;4.03;2.30;;;22.20;92.60;;;;;;5070658;28;20043;-66
2022/07/26 12:03:57;;;;;;;2.78;1.10;;;22.20;92.50;;;;;;5070627;28;20025;-66
2022/07/26 12:06:25;;;;;;;4.90;1.70;;;22.20;93.40;;;;;;5052741;28;20021;-66
2022/07/26 12:08:55;;;;;;;;;;;22.20;93.50;;;;;;5070933;28;20028;-66
2022/07/26 12:11:23;;;;;;;4.65;1.55;;;22.10;93.60;;;;;;5074241;28;20272;-65
2022/07/26 12:14:00;;;;;;;3.80;1.20;;;22.10;93.20;;;;;;5074189;28;20029;-66
2022/07/26 12:16:44;;;;;;;2.35;1.00;;;22.10;92.70;;;;;;5073938;28;20119;-66
2022/07/26 12:19:16;;;;;;;2.72;1.20;;;22.10;92.00;;;;;;5087716;22;20430;-70
2022/07/26 12:21:54;;;;;;;5.50;2.03;;;22.10;92.30;;;;;;5073783;28;20036;-70
2022/07/26 12:24:56;;;;;;;3.42;1.50;;;22.20;92.80;;;;;;5074218;28;20029;-70
2022/07/26 12:27:30;;;;;;;4.18;1.48;;;22.30;93.10;;;;;;5031168;28;20025;-70
2022/07/26 12:30:14;;;;;;;2.65;1.42;;;22.30;92.90;;;;;;5067244;28;20378;-70
2022/07/26 12:32:44;;;;;;;0.98;0.60;;;22.40;92.80;;;;;;5073647;28;20115;-70
2022/07/26 12:35:15;;;;;;;1.83;0.85;;;22.30;91.30;;;;;;5073643;28;20480;-70
2022/07/26 12:37:44;;;;;;;2.45;1.00;;;22.40;91.50;;;;;;5073986;28;20055;-70
2022/07/26 12:40:25;;;;;;;1.58;0.82;;;22.40;91.80;;;;;;5073352;28;20063;-70
2022/07/26 12:42:51;;;;;;;2.05;1.02;;;22.40;92.00;;;;;;5073604;28;20029;-70
2022/07/26 12:45:18;;;;;;;1.90;0.80;;;22.30;92.10;;;;;;5073866;28;20036;-70
2022/07/26 12:47:46;;;;;;;4.18;1.00;;;22.40;92.30;;;;;;5073267;28;20024;-70
2022/07/26 12:50:14;;;;;;;1.73;0.60;;;22.50;92.00;;;;;;5073119;28;20033;-70
2022/07/26 12:52:40;;;;;;;2.78;1.00;;;22.50;91.80;;;;;;5073666;28;20075;-70